sensor_id;sensor_type;location;lat;lon;timestamp;pressure;altitude;pressure_sealevel;temperature;humidity
69842;BME280;57138;51.326;-0.068;2023-02-02T00:01:09;100783.50;;;6.81;81.40
69842;BME280;57138;51.326;-0.068;2023-02-02T00:04:20;100785.31;;;6.80;81.59
69842;BME280;57138;51.326;-0.068;2023-02-02T00:14:13;100794.28;;;6.79;81.48
69842;BME280;57138;51.326;-0.068;2023-02-02T00:16:55;100801.97;;;6.82;81.22
69842;BME280;57138;51.326;-0.068;2023-02-02T00:19:28;100806.25;;;6.83;81.40
69842;BME280;57138;51.326;-0.068;2023-02-02T00:22:05;100808.63;;;6.87;81.69
69842;BME280;57138;51.326;-0.068;2023-02-02T00:24:33;100807.13;;;6.84;81.15
69842;BME280;57138;51.326;-0.068;2023-02-02T00:26:59;100801.25;;;6.80;80.96
69842;BME280;57138;51.326;-0.068;2023-02-02T00:29:30;100806.25;;;6.83;81.38
69842;BME280;57138;51.326;-0.068;2023-02-02T00:31:56;100809.31;;;6.89;81.81
69842;BME280;57138;51.326;-0.068;2023-02-02T00:34:24;100803.22;;;6.78;80.86
69842;BME280;57138;51.326;-0.068;2023-02-02T00:36:53;100806.88;;;6.77;81.32
69842;BME280;57138;51.326;-0.068;2023-02-02T00:39:23;100802.56;;;6.76;81.74
69842;BME280;57138;51.326;-0.068;2023-02-02T00:41:56;100815.78;;;6.86;81.36
69842;BME280;57138;51.326;-0.068;2023-02-02T00:44:22;100805.75;;;6.80;81.04
69842;BME280;57138;51.326;-0.068;2023-02-02T00:47:06;100819.63;;;6.92;80.91
69842;BME280;57138;51.326;-0.068;2023-02-02T00:49:38;100797.63;;;6.81;81.30
69842;BME280;57138;51.326;-0.068;2023-02-02T00:52:03;100811.50;;;6.93;81.32
69842;BME280;57138;51.326;-0.068;2023-02-02T00:54:36;100792.00;;;6.84;81.49
69842;BME280;57138;51.326;-0.068;2023-02-02T00:57:02;100801.72;;;6.94;81.03
69842;BME280;57138;51.326;-0.068;2023-02-02T00:59:41;100806.19;;;6.93;81.18
69842;BME280;57138;51.326;-0.068;2023-02-02T01:02:17;100792.69;;;6.87;81.00
69842;BME280;57138;51.326;-0.068;2023-02-02T01:05:10;100784.41;;;6.90;81.17
69842;BME280;57138;51.326;-0.068;2023-02-02T01:11:45;100802.56;;;6.94;81.04
69842;BME280;57138;51.326;-0.068;2023-02-02T01:14:14;100786.09;;;6.91;80.74
69842;BME280;57138;51.326;-0.068;2023-02-02T01:16:52;100776.66;;;6.78;81.00
69842;BME280;57138;51.326;-0.068;2023-02-02T01:19:28;100791.72;;;6.88;81.08
69842;BME280;57138;51.326;-0.068;2023-02-02T01:22:04;100799.75;;;6.96;80.44
69842;BME280;57138;51.326;-0.068;2023-02-02T01:24:56;100779.69;;;6.83;80.75
69842;BME280;57138;51.326;-0.068;2023-02-02T01:27:59;100798.06;;;6.95;80.53
69842;BME280;57138;51.326;-0.068;2023-02-02T01:30:50;100793.63;;;6.95;80.93
69842;BME280;57138;51.326;-0.068;2023-02-02T01:33:55;100780.69;;;6.82;81.25
69842;BME280;57138;51.326;-0.068;2023-02-02T01:36:51;100796.72;;;6.91;81.12
69842;BME280;57138;51.326;-0.068;2023-02-02T01:42:20;100803.69;;;6.92;81.35
69842;BME280;57138;51.326;-0.068;2023-02-02T01:48:01;100803.69;;;6.92;81.51
69842;BME280;57138;51.326;-0.068;2023-02-02T01:51:00;100819.63;;;6.92;81.10
69842;BME280;57138;51.326;-0.068;2023-02-02T01:56:45;100818.00;;;6.91;81.83
69842;BME280;57138;51.326;-0.068;2023-02-02T01:59:44;100804.00;;;6.89;81.97
69842;BME280;57138;51.326;-0.068;2023-02-02T02:02:27;100809.31;;;6.89;81.97
69842;BME280;57138;51.326;-0.068;2023-02-02T02:05:41;100801.47;;;6.87;82.28
69842;BME280;57138;51.326;-0.068;2023-02-02T02:29:40;100807.56;;;6.79;82.63
69842;BME280;57138;51.326;-0.068;2023-02-02T05:08:50;100813.84;;;5.17;86.89
69842;BME280;57138;51.326;-0.068;2023-02-02T05:15:16;100827.53;;;5.22;86.71
69842;BME280;57138;51.326;-0.068;2023-02-02T05:18:14;100835.47;;;5.22;87.26
69842;BME280;57138;51.326;-0.068;2023-02-02T05:24:42;100823.47;;;5.18;87.14
69842;BME280;57138;51.326;-0.068;2023-02-02T05:28:03;100833.78;;;5.21;86.82
69842;BME280;57138;51.326;-0.068;2023-02-02T05:59:23;100817.03;;;4.91;87.16
69842;BME280;57138;51.326;-0.068;2023-02-02T06:06:20;100818.69;;;4.92;87.96
69842;BME280;57138;51.326;-0.068;2023-02-02T06:09:34;100830.13;;;4.93;87.90
69842;BME280;57138;51.326;-0.068;2023-02-02T06:23:31;100817.56;;;4.85;87.26
69842;BME280;57138;51.326;-0.068;2023-02-02T06:26:42;100836.25;;;4.93;87.89
69842;BME280;57138;51.326;-0.068;2023-02-02T06:29:44;100837.09;;;4.94;87.21
69842;BME280;57138;51.326;-0.068;2023-02-02T06:32:52;100828.59;;;4.90;87.52
69842;BME280;57138;51.326;-0.068;2023-02-02T06:50:08;100832.47;;;4.86;88.06
69842;BME280;57138;51.326;-0.068;2023-02-02T06:59:47;100841.56;;;4.83;87.98
69842;BME280;57138;51.326;-0.068;2023-02-02T07:02:38;100833.41;;;4.75;88.64
69842;BME280;57138;51.326;-0.068;2023-02-02T07:05:04;100842.38;;;4.84;88.25
69842;BME280;57138;51.326;-0.068;2023-02-02T07:07:54;100853.25;;;4.81;88.57
69842;BME280;57138;51.326;-0.068;2023-02-02T07:10:39;100836.06;;;4.75;88.41
69842;BME280;57138;51.326;-0.068;2023-02-02T07:16:25;100860.25;;;4.82;89.34
69842;BME280;57138;51.326;-0.068;2023-02-02T07:19:02;100859.50;;;4.80;89.25
69842;BME280;57138;51.326;-0.068;2023-02-02T07:21:40;100845.97;;;4.73;88.93
69842;BME280;57138;51.326;-0.068;2023-02-02T07:27:15;100850.19;;;4.85;90.08
69842;BME280;57138;51.326;-0.068;2023-02-02T07:30:07;100861.34;;;4.89;90.37
69842;BME280;57138;51.326;-0.068;2023-02-02T07:33:04;100857.47;;;4.93;90.46
69842;BME280;57138;51.326;-0.068;2023-02-02T08:09:28;100848.03;;;5.30;91.40
69842;BME280;57138;51.326;-0.068;2023-02-02T10:07:34;100958.31;;;7.25;91.50
69842;BME280;57138;51.326;-0.068;2023-02-02T10:10:17;100962.88;;;7.32;91.25
69842;BME280;57138;51.326;-0.068;2023-02-02T10:12:56;100943.69;;;7.29;91.56
69842;BME280;57138;51.326;-0.068;2023-02-02T10:15:49;100975.22;;;7.51;91.09
69842;BME280;57138;51.326;-0.068;2023-02-02T10:24:02;100961.31;;;7.58;90.94
69842;BME280;57138;51.326;-0.068;2023-02-02T10:26:34;100989.41;;;7.70;90.30
69842;BME280;57138;51.326;-0.068;2023-02-02T10:32:21;100997.44;;;7.78;90.20
69842;BME280;57138;51.326;-0.068;2023-02-02T10:38:07;101007.56;;;7.92;90.73
69842;BME280;57138;51.326;-0.068;2023-02-02T10:46:29;100992.56;;;7.91;90.17
69842;BME280;57138;51.326;-0.068;2023-02-02T10:49:14;100977.31;;;7.94;89.97
69842;BME280;57138;51.326;-0.068;2023-02-02T10:59:08;101016.84;;;8.06;90.10
69842;BME280;57138;51.326;-0.068;2023-02-02T11:49:18;100952.63;;;8.54;88.62
69842;BME280;57138;51.326;-0.068;2023-02-02T11:52:01;100943.50;;;8.56;88.65
69842;BME280;57138;51.326;-0.068;2023-02-02T11:54:54;100956.53;;;8.68;88.47
69842;BME280;57138;51.326;-0.068;2023-02-02T11:57:24;100944.53;;;8.63;88.81
69842;BME280;57138;51.326;-0.068;2023-02-02T12:00:10;100940.22;;;8.71;88.57
69842;BME280;57138;51.326;-0.068;2023-02-02T12:03:19;100923.28;;;8.80;88.18
69842;BME280;57138;51.326;-0.068;2023-02-02T12:09:13;100921.19;;;8.92;87.29
69842;BME280;57138;51.326;-0.068;2023-02-02T12:17:39;100944.44;;;9.16;87.15
69842;BME280;57138;51.326;-0.068;2023-02-02T12:20:44;100945.63;;;9.22;86.48
69842;BME280;57138;51.326;-0.068;2023-02-02T12:31:58;100938.44;;;9.22;86.43
69842;BME280;57138;51.326;-0.068;2023-02-02T12:54:50;100923.94;;;9.16;85.64
69842;BME280;57138;51.326;-0.068;2023-02-02T13:07:57;100923.00;;;9.42;85.34
69842;BME280;57138;51.326;-0.068;2023-02-02T13:10:31;100907.66;;;9.44;84.82
69842;BME280;57138;51.326;-0.068;2023-02-02T13:13:11;100902.81;;;9.40;84.78
69842;BME280;57138;51.326;-0.068;2023-02-02T13:15:41;100899.50;;;9.46;84.35
69842;BME280;57138;51.326;-0.068;2023-02-02T13:18:25;100898.81;;;9.52;84.40
69842;BME280;57138;51.326;-0.068;2023-02-02T13:20:59;100906.66;;;9.53;84.13
69842;BME280;57138;51.326;-0.068;2023-02-02T13:23:30;100899.34;;;9.47;84.38
69842;BME280;57138;51.326;-0.068;2023-02-02T13:26:27;100883.44;;;9.38;83.61
69842;BME280;57138;51.326;-0.068;2023-02-02T13:32:01;100904.13;;;9.35;84.51
69842;BME280;57138;51.326;-0.068;2023-02-02T13:43:32;100907.78;;;9.26;85.35
69842;BME280;57138;51.326;-0.068;2023-02-02T13:46:39;100901.09;;;9.22;86.06
69842;BME280;57138;51.326;-0.068;2023-02-02T13:49:33;100905.59;;;9.22;85.46
69842;BME280;57138;51.326;-0.068;2023-02-02T14:00:37;100862.53;;;9.08;86.63
69842;BME280;57138;51.326;-0.068;2023-02-02T14:03:29;100894.44;;;9.18;86.04
69842;BME280;57138;51.326;-0.068;2023-02-02T14:06:18;100895.75;;;9.22;86.47
69842;BME280;57138;51.326;-0.068;2023-02-02T14:08:54;100889.09;;;9.18;86.55
69842;BME280;57138;51.326;-0.068;2023-02-02T14:11:30;100897.44;;;9.23;86.87
69842;BME280;57138;51.326;-0.068;2023-02-02T14:14:17;100877.06;;;9.14;86.25
69842;BME280;57138;51.326;-0.068;2023-02-02T14:32:26;100889.78;;;9.28;86.36
69842;BME280;57138;51.326;-0.068;2023-02-02T14:34:56;100894.97;;;9.38;85.85
69842;BME280;57138;51.326;-0.068;2023-02-02T14:45:35;100889.81;;;9.45;85.19
69842;BME280;57138;51.326;-0.068;2023-02-02T14:48:21;100869.78;;;9.32;85.25
69842;BME280;57138;51.326;-0.068;2023-02-02T14:50:50;100881.81;;;9.37;85.55
69842;BME280;57138;51.326;-0.068;2023-02-02T14:53:31;100901.47;;;9.44;85.09
69842;BME280;57138;51.326;-0.068;2023-02-02T14:56:02;100893.47;;;9.44;85.29
69842;BME280;57138;51.326;-0.068;2023-02-02T14:58:37;100897.16;;;9.43;85.08
69842;BME280;57138;51.326;-0.068;2023-02-02T15:03:57;100897.50;;;9.40;84.57
69842;BME280;57138;51.326;-0.068;2023-02-02T15:06:40;100901.16;;;9.39;84.47
69842;BME280;57138;51.326;-0.068;2023-02-02T15:20:20;100884.97;;;9.32;84.12
69842;BME280;57138;51.326;-0.068;2023-02-02T15:30:58;100904.31;;;9.42;84.06
69842;BME280;57138;51.326;-0.068;2023-02-02T15:33:44;100901.97;;;9.39;84.18
69842;BME280;57138;51.326;-0.068;2023-02-02T15:36:15;100916.50;;;9.45;84.08
69842;BME280;57138;51.326;-0.068;2023-02-02T15:38:43;100925.34;;;9.45;84.06
69842;BME280;57138;51.326;-0.068;2023-02-02T15:41:23;100912.31;;;9.42;83.73
69842;BME280;57138;51.326;-0.068;2023-02-02T15:43:50;100923.00;;;9.42;83.37
69842;BME280;57138;51.326;-0.068;2023-02-02T15:46:20;100917.81;;;9.41;83.33
69842;BME280;57138;51.326;-0.068;2023-02-02T15:51:51;100929.19;;;9.43;83.55
69842;BME280;57138;51.326;-0.068;2023-02-02T15:54:29;100920.16;;;9.44;83.23
69842;BME280;57138;51.326;-0.068;2023-02-02T15:56:57;100927.19;;;9.45;83.58
69842;BME280;57138;51.326;-0.068;2023-02-02T15:59:27;100927.50;;;9.42;83.33
69842;BME280;57138;51.326;-0.068;2023-02-02T16:04:39;100928.88;;;9.46;83.48
69842;BME280;57138;51.326;-0.068;2023-02-02T16:07:15;100923.00;;;9.42;83.07
69842;BME280;57138;51.326;-0.068;2023-02-02T16:09:41;100928.16;;;9.44;83.36
69842;BME280;57138;51.326;-0.068;2023-02-02T16:12:19;100938.50;;;9.39;82.83
69842;BME280;57138;51.326;-0.068;2023-02-02T16:14:47;100933.84;;;9.41;82.59
69842;BME280;57138;51.326;-0.068;2023-02-02T16:17:28;100922.50;;;9.39;82.58
69842;BME280;57138;51.326;-0.068;2023-02-02T16:20:04;100926.16;;;9.38;82.45
69842;BME280;57138;51.326;-0.068;2023-02-02T16:22:35;100920.47;;;9.32;82.93
69842;BME280;57138;51.326;-0.068;2023-02-02T16:25:06;100938.84;;;9.35;82.41
69842;BME280;57138;51.326;-0.068;2023-02-02T16:27:34;100936.31;;;9.34;82.55
69842;BME280;57138;51.326;-0.068;2023-02-02T16:30:05;100931.00;;;9.34;82.38
69842;BME280;57138;51.326;-0.068;2023-02-02T16:32:36;100920.81;;;9.29;82.45
69842;BME280;57138;51.326;-0.068;2023-02-02T16:35:05;100938.19;;;9.33;82.51
69842;BME280;57138;51.326;-0.068;2023-02-02T16:37:33;100941.66;;;9.34;82.59
69842;BME280;57138;51.326;-0.068;2023-02-02T16:40:27;100943.84;;;9.30;81.57
69842;BME280;57138;51.326;-0.068;2023-02-02T16:45:54;100945.16;;;9.26;82.04
69842;BME280;57138;51.326;-0.068;2023-02-02T16:48:40;100943.13;;;9.28;81.69
69842;BME280;57138;51.326;-0.068;2023-02-02T16:53:43;100937.13;;;9.26;81.83
69842;BME280;57138;51.326;-0.068;2023-02-02T16:56:21;100949.81;;;9.24;81.56
69842;BME280;57138;51.326;-0.068;2023-02-02T16:58:48;100926.44;;;9.18;80.95
69842;BME280;57138;51.326;-0.068;2023-02-02T17:01:14;100932.09;;;9.15;80.70
69842;BME280;57138;51.326;-0.068;2023-02-02T17:03:48;100938.44;;;9.14;80.84
69842;BME280;57138;51.326;-0.068;2023-02-02T17:06:14;100951.78;;;9.14;80.82
69842;BME280;57138;51.326;-0.068;2023-02-02T17:08:40;100944.44;;;9.16;80.72
69842;BME280;57138;51.326;-0.068;2023-02-02T17:11:22;100961.13;;;9.18;80.07
69842;BME280;57138;51.326;-0.068;2023-02-02T17:13:48;100949.25;;;9.12;80.79
69842;BME280;57138;51.326;-0.068;2023-02-02T17:16:17;100952.91;;;9.11;80.58
69842;BME280;57138;51.326;-0.068;2023-02-02T17:18:44;100965.47;;;9.19;80.68
69842;BME280;57138;51.326;-0.068;2023-02-02T17:21:28;100955.25;;;9.14;79.81
69842;BME280;57138;51.326;-0.068;2023-02-02T17:23:54;100948.44;;;9.12;80.25
69842;BME280;57138;51.326;-0.068;2023-02-02T17:26:20;100940.59;;;9.10;80.05
69842;BME280;57138;51.326;-0.068;2023-02-02T17:28:46;100944.25;;;9.09;80.03
69842;BME280;57138;51.326;-0.068;2023-02-02T17:31:13;100940.06;;;9.07;79.97
69842;BME280;57138;51.326;-0.068;2023-02-02T17:33:39;100956.44;;;9.12;80.24
69842;BME280;57138;51.326;-0.068;2023-02-02T17:36:05;100961.63;;;9.13;80.12
69842;BME280;57138;51.326;-0.068;2023-02-02T17:38:31;100954.28;;;9.15;79.75
69842;BME280;57138;51.326;-0.068;2023-02-02T17:40:59;100964.13;;;9.15;79.55
69842;BME280;57138;51.326;-0.068;2023-02-02T17:43:25;100957.09;;;9.14;79.23
69842;BME280;57138;51.326;-0.068;2023-02-02T17:45:51;100955.25;;;9.14;79.20
69842;BME280;57138;51.326;-0.068;2023-02-02T17:48:17;100944.25;;;9.09;78.95
69842;BME280;57138;51.326;-0.068;2023-02-02T17:50:42;100954.75;;;9.11;79.15
69842;BME280;57138;51.326;-0.068;2023-02-02T17:53:13;100946.59;;;9.12;79.15
69842;BME280;57138;51.326;-0.068;2023-02-02T17:55:41;100944.09;;;9.11;79.16
69842;BME280;57138;51.326;-0.068;2023-02-02T17:58:08;100955.44;;;9.13;79.13
69842;BME280;57138;51.326;-0.068;2023-02-02T18:00:34;100943.41;;;9.09;78.95
69842;BME280;57138;51.326;-0.068;2023-02-02T18:03:22;100962.75;;;9.11;79.21
69842;BME280;57138;51.326;-0.068;2023-02-02T18:05:48;100956.38;;;9.04;79.20
69842;BME280;57138;51.326;-0.068;2023-02-02T18:08:14;100956.06;;;9.07;79.50
69842;BME280;57138;51.326;-0.068;2023-02-02T18:10:40;100956.06;;;9.07;79.60
69842;BME280;57138;51.326;-0.068;2023-02-02T18:13:08;100941.03;;;8.97;79.58
69842;BME280;57138;51.326;-0.068;2023-02-02T18:15:37;100950.88;;;9.05;79.50
69842;BME280;57138;51.326;-0.068;2023-02-02T18:18:02;100953.72;;;9.04;79.71
69842;BME280;57138;51.326;-0.068;2023-02-02T18:20:28;100948.38;;;9.04;79.93
69842;BME280;57138;51.326;-0.068;2023-02-02T18:22:54;100924.50;;;8.94;80.19
69842;BME280;57138;51.326;-0.068;2023-02-02T18:25:19;100952.91;;;9.03;79.82
69842;BME280;57138;51.326;-0.068;2023-02-02T18:27:45;100940.38;;;9.04;79.58
69842;BME280;57138;51.326;-0.068;2023-02-02T18:30:11;100937.72;;;9.04;80.06
69842;BME280;57138;51.326;-0.068;2023-02-02T18:32:38;100952.22;;;9.01;79.63
69842;BME280;57138;51.326;-0.068;2023-02-02T18:35:06;100939.38;;;8.96;79.32
69842;BME280;57138;51.326;-0.068;2023-02-02T18:37:33;100939.88;;;9.00;79.18
69842;BME280;57138;51.326;-0.068;2023-02-02T18:39:58;100944.38;;;8.99;79.38
69842;BME280;57138;51.326;-0.068;2023-02-02T18:42:44;100921.81;;;8.86;79.16
69842;BME280;57138;51.326;-0.068;2023-02-02T18:45:10;100932.03;;;8.98;78.72
69842;BME280;57138;51.326;-0.068;2023-02-02T18:47:36;100943.03;;;8.95;79.11
69842;BME280;57138;51.326;-0.068;2023-02-02T18:50:01;100950.69;;;8.98;78.87
69842;BME280;57138;51.326;-0.068;2023-02-02T18:52:31;100940.31;;;8.87;78.31
69842;BME280;57138;51.326;-0.068;2023-02-02T18:54:57;100953.00;;;8.85;78.42
69842;BME280;57138;51.326;-0.068;2023-02-02T18:57:28;100964.34;;;8.95;78.13
69842;BME280;57138;51.326;-0.068;2023-02-02T18:59:57;100955.03;;;8.91;78.09
69842;BME280;57138;51.326;-0.068;2023-02-02T19:02:22;100942.34;;;8.85;78.37
69842;BME280;57138;51.326;-0.068;2023-02-02T19:04:49;100954.50;;;8.88;78.61
69842;BME280;57138;51.326;-0.068;2023-02-02T19:07:33;100972.38;;;8.95;77.94
69842;BME280;57138;51.326;-0.068;2023-02-02T19:10:17;100966.38;;;8.93;78.41
69842;BME280;57138;51.326;-0.068;2023-02-02T19:12:54;100966.03;;;8.96;78.52
69842;BME280;57138;51.326;-0.068;2023-02-02T19:15:21;100974.38;;;8.93;78.29
69842;BME280;57138;51.326;-0.068;2023-02-02T19:17:49;100971.53;;;8.95;78.17
69842;BME280;57138;51.326;-0.068;2023-02-02T19:20:26;100963.53;;;8.95;78.29
69842;BME280;57138;51.326;-0.068;2023-02-02T19:23:08;100971.69;;;8.93;78.41
69842;BME280;57138;51.326;-0.068;2023-02-02T19:25:34;100954.31;;;8.89;78.39
69842;BME280;57138;51.326;-0.068;2023-02-02T19:28:20;100956.69;;;8.92;78.42
69842;BME280;57138;51.326;-0.068;2023-02-02T19:30:46;100948.69;;;8.92;77.91
69842;BME280;57138;51.326;-0.068;2023-02-02T19:33:14;100953.19;;;8.92;77.90
69842;BME280;57138;51.326;-0.068;2023-02-02T19:35:43;100953.34;;;8.90;77.89
69842;BME280;57138;51.326;-0.068;2023-02-02T19:38:12;100932.31;;;8.79;77.97
69842;BME280;57138;51.326;-0.068;2023-02-02T19:40:39;100935.47;;;8.82;78.17
69842;BME280;57138;51.326;-0.068;2023-02-02T19:45:38;100944.28;;;8.83;78.54
69842;BME280;57138;51.326;-0.068;2023-02-02T19:48:16;100961.97;;;8.84;78.25
69842;BME280;57138;51.326;-0.068;2023-02-02T19:50:42;100954.66;;;8.86;78.48
69842;BME280;57138;51.326;-0.068;2023-02-02T19:55:42;100956.97;;;8.81;77.97
69842;BME280;57138;51.326;-0.068;2023-02-02T19:58:21;100950.50;;;8.84;78.18
69842;BME280;57138;51.326;-0.068;2023-02-02T20:00:51;100929.25;;;8.74;78.14
69842;BME280;57138;51.326;-0.068;2023-02-02T20:03:17;100959.00;;;8.87;78.45
69842;BME280;57138;51.326;-0.068;2023-02-02T20:05:48;100956.13;;;8.80;78.04
69842;BME280;57138;51.326;-0.068;2023-02-02T20:08:29;100967.00;;;8.87;78.62
69842;BME280;57138;51.326;-0.068;2023-02-02T20:11:07;100971.28;;;8.80;78.84
69842;BME280;57138;51.326;-0.068;2023-02-02T20:13:44;100983.00;;;8.87;79.15
69842;BME280;57138;51.326;-0.068;2023-02-02T20:16:30;100979.44;;;8.78;78.95
69842;BME280;57138;51.326;-0.068;2023-02-02T20:19:27;100980.22;;;8.71;78.88
69842;BME280;57138;51.326;-0.068;2023-02-02T20:22:28;101000.13;;;8.85;78.96
69842;BME280;57138;51.326;-0.068;2023-02-02T20:25:17;101007.63;;;8.81;79.32
69842;BME280;57138;51.326;-0.068;2023-02-02T20:27:43;100999.28;;;8.76;79.08
69842;BME280;57138;51.326;-0.068;2023-02-02T20:30:22;101016.94;;;8.77;79.24
69842;BME280;57138;51.326;-0.068;2023-02-02T20:32:53;101019.44;;;8.78;79.12
69842;BME280;57138;51.326;-0.068;2023-02-02T20:37:57;101009.56;;;8.71;79.05
69842;BME280;57138;51.326;-0.068;2023-02-02T20:40:28;101010.09;;;8.74;79.17
69842;BME280;57138;51.326;-0.068;2023-02-02T20:42:54;100998.88;;;8.71;79.21
69842;BME280;57138;51.326;-0.068;2023-02-02T20:45:22;101009.25;;;8.74;79.27
69842;BME280;57138;51.326;-0.068;2023-02-02T20:47:48;101025.63;;;8.79;79.11
69842;BME280;57138;51.326;-0.068;2023-02-02T20:50:16;101014.56;;;8.74;78.88
69842;BME280;57138;51.326;-0.068;2023-02-02T20:52:42;101028.28;;;8.79;78.78
69842;BME280;57138;51.326;-0.068;2023-02-02T20:55:11;101013.53;;;8.67;78.77
69842;BME280;57138;51.326;-0.068;2023-02-02T20:57:37;101000.41;;;8.73;78.83
69842;BME280;57138;51.326;-0.068;2023-02-02T21:00:05;101031.63;;;8.81;78.99
69842;BME280;57138;51.326;-0.068;2023-02-02T21:02:31;101010.25;;;8.73;78.65
69842;BME280;57138;51.326;-0.068;2023-02-02T21:04:56;101014.25;;;8.77;78.53
69842;BME280;57138;51.326;-0.068;2023-02-02T21:07:22;101007.28;;;8.76;78.58
69842;BME280;57138;51.326;-0.068;2023-02-02T21:09:58;101016.63;;;8.80;79.05
69842;BME280;57138;51.326;-0.068;2023-02-02T21:12:23;101013.94;;;8.80;79.11
69842;BME280;57138;51.326;-0.068;2023-02-02T21:14:51;100997.06;;;8.71;78.72
69842;BME280;57138;51.326;-0.068;2023-02-02T21:17:17;100998.06;;;8.70;78.84
69842;BME280;57138;51.326;-0.068;2023-02-02T21:19:42;101002.59;;;8.78;78.68
69842;BME280;57138;51.326;-0.068;2023-02-02T21:22:08;100983.59;;;8.73;78.63
69842;BME280;57138;51.326;-0.068;2023-02-02T21:24:34;100997.59;;;8.75;78.87
69842;BME280;57138;51.326;-0.068;2023-02-02T21:26:59;100999.75;;;8.71;79.03
69842;BME280;57138;51.326;-0.068;2023-02-02T21:29:26;100998.88;;;8.71;79.07
69842;BME280;57138;51.326;-0.068;2023-02-02T21:31:52;101009.03;;;8.67;78.81
69842;BME280;57138;51.326;-0.068;2023-02-02T21:34:23;100995.13;;;8.55;78.99
69842;BME280;57138;51.326;-0.068;2023-02-02T21:36:48;101018.78;;;8.58;79.25
69842;BME280;57138;51.326;-0.068;2023-02-02T21:39:27;101023.47;;;8.56;79.62
69842;BME280;57138;51.326;-0.068;2023-02-02T21:42:16;101022.03;;;8.44;79.60
69842;BME280;57138;51.326;-0.068;2023-02-02T21:44:55;101024.00;;;8.42;80.36
69842;BME280;57138;51.326;-0.068;2023-02-02T21:47:39;101045.91;;;8.54;80.06
69842;BME280;57138;51.326;-0.068;2023-02-02T21:53:11;101007.63;;;8.37;80.51
69842;BME280;57138;51.326;-0.068;2023-02-02T21:55:43;101013.06;;;8.45;80.75
69842;BME280;57138;51.326;-0.068;2023-02-02T21:58:20;100994.47;;;8.35;80.79
69842;BME280;57138;51.326;-0.068;2023-02-02T22:00:51;101001.28;;;8.38;81.21
69842;BME280;57138;51.326;-0.068;2023-02-02T22:03:39;101019.66;;;8.41;81.32
69842;BME280;57138;51.326;-0.068;2023-02-02T22:08:42;101004.06;;;8.28;81.78
69842;BME280;57138;51.326;-0.068;2023-02-02T22:11:22;101024.25;;;8.31;81.89
69842;BME280;57138;51.326;-0.068;2023-02-02T22:13:48;101015.69;;;8.27;82.17
69842;BME280;57138;51.326;-0.068;2023-02-02T22:16:17;101025.38;;;8.28;82.31
69842;BME280;57138;51.326;-0.068;2023-02-02T22:18:44;101023.53;;;8.28;82.40
69842;BME280;57138;51.326;-0.068;2023-02-02T22:21:11;101016.41;;;8.29;82.74
69842;BME280;57138;51.326;-0.068;2023-02-02T22:23:38;101007.56;;;8.28;82.76
69842;BME280;57138;51.326;-0.068;2023-02-02T22:26:04;101004.38;;;8.25;82.63
69842;BME280;57138;51.326;-0.068;2023-02-02T22:28:37;101007.41;;;8.30;83.23
69842;BME280;57138;51.326;-0.068;2023-02-02T22:31:08;101010.22;;;8.28;82.81
69842;BME280;57138;51.326;-0.068;2023-02-02T22:33:34;101006.25;;;8.33;83.08
69842;BME280;57138;51.326;-0.068;2023-02-02T22:35:59;101016.09;;;8.32;83.36
69842;BME280;57138;51.326;-0.068;2023-02-02T22:38:25;101003.53;;;8.24;83.40
69842;BME280;57138;51.326;-0.068;2023-02-02T22:40:51;101016.91;;;8.33;83.25
69842;BME280;57138;51.326;-0.068;2023-02-02T22:43:18;101009.91;;;8.32;83.83
69842;BME280;57138;51.326;-0.068;2023-02-02T22:45:44;100998.88;;;8.26;83.45
69842;BME280;57138;51.326;-0.068;2023-02-02T22:48:11;101011.91;;;8.30;83.77
69842;BME280;57138;51.326;-0.068;2023-02-02T22:50:38;100984.50;;;8.19;83.65
69842;BME280;57138;51.326;-0.068;2023-02-02T22:53:04;100979.09;;;8.11;83.91
69842;BME280;57138;51.326;-0.068;2023-02-02T22:55:30;101004.69;;;8.22;83.88
69842;BME280;57138;51.326;-0.068;2023-02-02T22:57:56;100982.91;;;8.08;84.17
69842;BME280;57138;51.326;-0.068;2023-02-02T23:00:27;100978.91;;;8.04;84.09
69842;BME280;57138;51.326;-0.068;2023-02-02T23:02:53;100995.25;;;8.09;83.83
69842;BME280;57138;51.326;-0.068;2023-02-02T23:05:20;100995.03;;;8.03;83.97
69842;BME280;57138;51.326;-0.068;2023-02-02T23:07:47;100984.97;;;7.97;84.63
69842;BME280;57138;51.326;-0.068;2023-02-02T23:10:16;100976.94;;;7.88;84.68
69842;BME280;57138;51.326;-0.068;2023-02-02T23:12:43;100992.75;;;7.90;84.64
69842;BME280;57138;51.326;-0.068;2023-02-02T23:15:09;100978.06;;;7.86;84.89
69842;BME280;57138;51.326;-0.068;2023-02-02T23:17:35;100982.47;;;7.77;85.02
69842;BME280;57138;51.326;-0.068;2023-02-02T23:20:03;100975.31;;;7.78;85.16
69842;BME280;57138;51.326;-0.068;2023-02-02T23:22:29;100978.97;;;7.77;85.52
69842;BME280;57138;51.326;-0.068;2023-02-02T23:24:55;100975.06;;;7.71;85.00
69842;BME280;57138;51.326;-0.068;2023-02-02T23:27:20;100995.53;;;7.70;85.08
69842;BME280;57138;51.326;-0.068;2023-02-02T23:29:46;100983.00;;;7.63;85.98
69842;BME280;57138;51.326;-0.068;2023-02-02T23:32:12;100995.03;;;7.67;86.04
69842;BME280;57138;51.326;-0.068;2023-02-02T23:34:38;100981.31;;;7.62;85.90
69842;BME280;57138;51.326;-0.068;2023-02-02T23:37:03;100981.59;;;7.59;85.94
69842;BME280;57138;51.326;-0.068;2023-02-02T23:39:29;100966.53;;;7.49;85.88
69842;BME280;57138;51.326;-0.068;2023-02-02T23:41:54;100979.53;;;7.52;86.33
69842;BME280;57138;51.326;-0.068;2023-02-02T23:44:20;100984.41;;;7.57;85.99
69842;BME280;57138;51.326;-0.068;2023-02-02T23:46:46;101004.88;;;7.56;86.26
69842;BME280;57138;51.326;-0.068;2023-02-02T23:49:11;100996.53;;;7.42;86.49
69842;BME280;57138;51.326;-0.068;2023-02-02T23:51:37;101021.13;;;7.53;86.31
69842;BME280;57138;51.326;-0.068;2023-02-02T23:54:03;101015.03;;;7.43;86.55
69842;BME280;57138;51.326;-0.068;2023-02-02T23:56:29;101027.59;;;7.51;86.56
69842;BME280;57138;51.326;-0.068;2023-02-02T23:58:54;101041.03;;;7.49;86.37
